createdAt,value
2022-11-06T00:01:08.300Z,87.57
2022-11-06T00:03:35.339Z,87.20
2022-11-06T00:06:27.435Z,87.36
2022-11-06T00:08:54.283Z,86.95
2022-11-06T00:11:21.020Z,86.43
2022-11-06T00:13:47.700Z,86.72
2022-11-06T00:16:14.965Z,86.68
2022-11-06T00:18:42.070Z,86.06
2022-11-06T00:21:15.037Z,86.53
2022-11-06T00:23:41.877Z,86.38
2022-11-06T00:26:14.337Z,86.23
2022-11-06T00:28:41.448Z,86.25
2022-11-06T00:31:11.780Z,85.75
2022-11-06T00:33:38.492Z,86.61
2022-11-06T00:36:07.321Z,86.48
2022-11-06T00:38:33.867Z,86.40
2022-11-06T00:41:09.025Z,86.60
2022-11-06T00:43:35.898Z,86.90
2022-11-06T00:46:10.752Z,87.14
2022-11-06T00:48:38.231Z,86.69
2022-11-06T00:51:11.414Z,86.92
2022-11-06T00:53:38.235Z,88.29
2022-11-06T00:56:06.911Z,88.65
2022-11-06T00:58:33.992Z,88.59
2022-11-06T01:01:09.574Z,89.32
2022-11-06T01:03:36.785Z,89.49
2022-11-06T01:06:05.876Z,88.83
2022-11-06T01:08:32.570Z,89.90
2022-11-06T01:10:59.054Z,89.38
2022-11-06T01:13:25.399Z,89.89
2022-11-06T01:15:51.751Z,89.36
2022-11-06T01:18:18.129Z,90.26
2022-11-06T01:20:44.484Z,89.73
2022-11-06T01:23:10.892Z,89.46
2022-11-06T01:25:37.249Z,89.33
2022-11-06T01:28:03.825Z,89.28
2022-11-06T01:30:30.536Z,88.51
2022-11-06T01:32:56.940Z,88.24
2022-11-06T01:35:23.292Z,88.06
2022-11-06T01:37:49.696Z,88.54
2022-11-06T01:40:16.179Z,88.29
2022-11-06T01:42:42.548Z,89.27
2022-11-06T01:45:35.057Z,88.84
2022-11-06T01:48:01.631Z,89.34
2022-11-06T01:50:28.035Z,89.11
2022-11-06T01:52:55.686Z,89.41
2022-11-06T01:55:27.128Z,89.00
2022-11-06T01:57:54.433Z,88.98
2022-11-06T02:00:21.020Z,88.82
2022-11-06T02:02:47.709Z,88.20
2022-11-06T02:05:14.219Z,88.70
2022-11-06T02:07:42.670Z,88.00
2022-11-06T02:10:09.839Z,88.63
2022-11-06T02:12:45.593Z,88.30
2022-11-06T02:15:27.077Z,88.72
2022-11-06T02:18:12.385Z,88.15
2022-11-06T02:21:13.644Z,87.91
2022-11-06T02:23:58.280Z,87.30
2022-11-06T02:26:46.516Z,86.73
2022-11-06T02:29:24.660Z,87.05
2022-11-06T02:31:55.789Z,86.72
2022-11-06T02:34:25.394Z,86.38
2022-11-06T02:37:06.612Z,86.37
2022-11-06T02:39:36.028Z,86.29
2022-11-06T02:42:03.779Z,86.51
2022-11-06T02:44:36.257Z,87.15
2022-11-06T02:47:06.641Z,86.58
2022-11-06T02:49:38.632Z,86.44
2022-11-06T02:52:10.727Z,86.80
2022-11-06T02:54:43.547Z,86.10
2022-11-06T02:57:16.240Z,86.02
2022-11-06T02:59:50.363Z,85.92
2022-11-06T03:02:30.534Z,85.72
2022-11-06T03:05:11.126Z,86.52
2022-11-06T03:07:43.135Z,86.65
2022-11-06T03:10:11.827Z,86.03
2022-11-06T03:13:00.497Z,86.65
2022-11-06T03:15:43.333Z,86.26
2022-11-06T03:18:24.589Z,86.44
2022-11-06T03:21:02.183Z,87.09
2022-11-06T03:23:41.933Z,86.61
2022-11-06T03:26:27.129Z,87.05
2022-11-06T03:29:02.804Z,87.15
2022-11-06T03:31:38.162Z,86.77
2022-11-06T03:34:12.610Z,87.55
2022-11-06T03:36:48.048Z,87.46
2022-11-06T03:39:20.952Z,87.41
2022-11-06T03:41:55.647Z,87.46
2022-11-06T03:44:27.193Z,87.65
2022-11-06T03:47:00.542Z,88.39
2022-11-06T03:49:33.363Z,88.34
2022-11-06T03:52:06.395Z,88.39
2022-11-06T03:54:38.692Z,88.26
2022-11-06T03:57:09.668Z,88.15
2022-11-06T03:59:41.586Z,87.97
2022-11-06T04:02:08.764Z,87.80
2022-11-06T04:04:41.535Z,88.38
2022-11-06T04:07:11.980Z,89.32
2022-11-06T04:10:01.301Z,89.23
2022-11-06T04:12:49.824Z,88.57
2022-11-06T04:15:20.059Z,89.23
2022-11-06T04:17:46.532Z,89.40
2022-11-06T04:20:37.749Z,88.55
2022-11-06T04:23:33.991Z,88.68
2022-11-06T04:26:29.408Z,88.75
2022-11-06T04:29:04.951Z,89.40
2022-11-06T04:31:43.448Z,89.06
2022-11-06T04:34:26.552Z,89.94
2022-11-06T04:37:23.835Z,90.25
2022-11-06T04:40:00.081Z,90.81
2022-11-06T04:42:35.812Z,91.22
2022-11-06T04:45:07.764Z,91.53
2022-11-06T04:47:37.170Z,91.50
2022-11-06T04:50:07.648Z,91.31
2022-11-06T04:52:36.862Z,91.57
2022-11-06T04:55:03.499Z,92.34
2022-11-06T04:57:29.899Z,92.47
2022-11-06T04:59:57.575Z,92.04
2022-11-06T05:02:24.643Z,92.78
2022-11-06T05:04:51.132Z,92.07
2022-11-06T05:07:17.608Z,92.46
2022-11-06T05:09:45.564Z,92.24
2022-11-06T05:12:11.911Z,92.51
2022-11-06T05:14:38.295Z,92.02
2022-11-06T05:17:04.765Z,92.25
2022-11-06T05:19:31.166Z,92.75
2022-11-06T05:22:16.069Z,92.69
2022-11-06T05:24:42.438Z,92.29
2022-11-06T05:27:08.834Z,92.24
2022-11-06T05:29:35.188Z,92.92
2022-11-06T05:32:01.754Z,93.21
2022-11-06T05:34:28.130Z,92.93
2022-11-06T05:36:54.543Z,93.47
2022-11-06T05:39:20.902Z,93.30
2022-11-06T05:41:47.244Z,93.50
2022-11-06T05:44:13.717Z,93.62
2022-11-06T05:46:48.698Z,93.22
2022-11-06T05:49:17.088Z,93.69
2022-11-06T05:51:43.515Z,93.69
2022-11-06T05:54:09.889Z,93.38
2022-11-06T05:56:36.338Z,93.74
2022-11-06T05:59:02.736Z,93.32
2022-11-06T06:01:29.207Z,93.03
2022-11-06T06:03:55.610Z,93.53
2022-11-06T06:06:22.125Z,93.12
2022-11-06T06:08:48.492Z,93.61
2022-11-06T06:11:14.839Z,93.20
2022-11-06T06:13:41.198Z,93.00
2022-11-06T06:16:07.602Z,93.14
2022-11-06T06:18:34.135Z,92.89
2022-11-06T06:21:00.524Z,92.20
2022-11-06T06:23:26.927Z,92.27
2022-11-06T06:25:53.395Z,91.78
2022-11-06T06:28:19.802Z,91.92
2022-11-06T06:30:46.311Z,92.38
2022-11-06T06:33:12.683Z,92.29
2022-11-06T06:35:39.057Z,92.64
2022-11-06T06:38:05.434Z,92.60
2022-11-06T06:40:32.007Z,92.64
2022-11-06T06:42:58.680Z,93.30
2022-11-06T06:45:26.069Z,92.54
2022-11-06T06:47:52.571Z,93.32
2022-11-06T06:50:19.417Z,92.99
2022-11-06T06:52:45.913Z,92.61
2022-11-06T06:55:12.268Z,92.58
2022-11-06T06:57:38.696Z,91.89
2022-11-06T07:00:05.700Z,91.79
2022-11-06T07:02:32.165Z,92.18
2022-11-06T07:04:58.568Z,91.99
2022-11-06T07:07:24.943Z,92.43
2022-11-06T07:09:52.154Z,92.87
2022-11-06T07:12:18.522Z,92.40
2022-11-06T07:14:44.869Z,92.24
2022-11-06T07:17:11.267Z,91.65
2022-11-06T07:19:37.638Z,91.51
2022-11-06T07:22:04.011Z,91.77
2022-11-06T07:24:30.447Z,91.54
2022-11-06T07:26:56.814Z,91.24
2022-11-06T07:29:23.183Z,91.03
2022-11-06T07:31:49.564Z,91.33
2022-11-06T07:34:15.904Z,91.63
2022-11-06T07:36:42.259Z,92.13
2022-11-06T07:39:08.606Z,91.57
2022-11-06T07:41:35.133Z,91.21
2022-11-06T07:44:01.538Z,91.67
2022-11-06T07:46:27.944Z,91.00
2022-11-06T07:48:54.815Z,90.69
2022-11-06T07:51:21.270Z,91.19
2022-11-06T07:53:47.833Z,90.94
2022-11-06T07:56:14.400Z,90.75
2022-11-06T07:58:40.825Z,91.04
2022-11-06T08:01:18.200Z,91.05
2022-11-06T08:03:45.675Z,91.41
2022-11-06T08:06:12.256Z,91.47
2022-11-06T08:08:38.677Z,91.25
2022-11-06T08:11:10.132Z,90.73
2022-11-06T08:13:37.100Z,91.09
2022-11-06T08:16:08.050Z,90.63
2022-11-06T08:18:34.938Z,90.78
2022-11-06T08:21:02.023Z,90.99
2022-11-06T08:23:28.887Z,91.86
2022-11-06T08:25:57.384Z,91.56
2022-11-06T08:28:25.135Z,91.89
2022-11-06T08:30:51.975Z,92.02
2022-11-06T08:33:19.610Z,92.65
2022-11-06T08:35:46.136Z,92.70
2022-11-06T08:38:13.169Z,92.90
2022-11-06T08:40:40.207Z,93.18
2022-11-06T08:43:10.004Z,93.41
2022-11-06T08:45:39.360Z,93.69
2022-11-06T08:48:06.292Z,93.86
2022-11-06T08:50:34.830Z,94.13
2022-11-06T08:53:04.051Z,93.47
2022-11-06T08:55:31.248Z,94.41
2022-11-06T08:57:57.624Z,93.79
2022-11-06T09:00:24.057Z,94.91
2022-11-06T09:02:50.677Z,95.25
2022-11-06T09:05:17.356Z,94.69
2022-11-06T09:07:43.724Z,94.80
2022-11-06T09:10:10.131Z,95.30
2022-11-06T09:12:36.536Z,95.48
2022-11-06T09:15:03.095Z,95.05
2022-11-06T09:17:29.491Z,95.30
2022-11-06T09:19:55.827Z,95.38
2022-11-06T09:22:22.222Z,95.82
2022-11-06T09:25:03.237Z,96.34
2022-11-06T09:27:30.412Z,96.56
2022-11-06T09:29:56.839Z,96.63
2022-11-06T09:32:23.944Z,97.15
2022-11-06T09:34:50.717Z,96.79
2022-11-06T09:37:17.122Z,97.50
2022-11-06T09:39:43.655Z,96.99
2022-11-06T09:42:47.078Z,96.78
2022-11-06T09:45:22.695Z,96.62
2022-11-06T09:48:09.321Z,96.93
2022-11-06T09:50:41.717Z,96.25
2022-11-06T09:53:19.076Z,96.67
2022-11-06T09:55:48.136Z,97.21
2022-11-06T09:58:21.660Z,97.35
2022-11-06T10:00:51.691Z,96.35
2022-11-06T10:03:26.280Z,96.88
2022-11-06T10:05:53.581Z,97.55
2022-11-06T10:08:22.166Z,97.92
2022-11-06T10:11:06.308Z,97.98
2022-11-06T10:14:05.471Z,97.31
2022-11-06T10:16:42.618Z,97.88
2022-11-06T10:19:27.355Z,97.99
2022-11-06T10:22:12.454Z,97.91
2022-11-06T10:24:44.112Z,97.92
2022-11-06T10:27:19.476Z,98.01
2022-11-06T10:30:01.220Z,97.86
2022-11-06T10:32:40.034Z,97.71
2022-11-06T10:35:25.589Z,97.72
2022-11-06T10:37:59.161Z,97.90
2022-11-06T10:40:28.878Z,98.00
2022-11-06T10:43:09.311Z,97.90
2022-11-06T10:45:41.110Z,97.97
2022-11-06T10:48:27.423Z,98.60
2022-11-06T10:51:16.324Z,98.21
2022-11-06T10:54:05.651Z,98.32
2022-11-06T10:56:53.270Z,97.62
2022-11-06T10:59:19.785Z,97.19
2022-11-06T11:01:46.416Z,97.54
2022-11-06T11:04:12.949Z,97.22
2022-11-06T11:06:42.262Z,97.46
2022-11-06T11:09:29.253Z,97.21
2022-11-06T11:11:55.934Z,96.28
2022-11-06T11:14:25.357Z,96.43
2022-11-06T11:16:52.781Z,96.28
2022-11-06T11:19:25.986Z,96.69
2022-11-06T11:22:05.194Z,95.77
2022-11-06T11:24:32.395Z,96.28
2022-11-06T11:27:04.835Z,96.38
2022-11-06T11:29:47.943Z,96.75
2022-11-06T11:32:16.700Z,96.37
2022-11-06T11:34:56.591Z,95.52
2022-11-06T11:37:29.540Z,94.54
2022-11-06T11:40:16.175Z,93.76
2022-11-06T11:42:42.576Z,93.46
2022-11-06T11:45:08.887Z,94.29
2022-11-06T11:47:36.977Z,93.29
2022-11-06T11:50:21.738Z,93.06
2022-11-06T11:52:51.212Z,93.23
2022-11-06T11:55:21.558Z,94.24
2022-11-06T11:57:51.250Z,93.66
2022-11-06T12:00:20.045Z,93.53
2022-11-06T12:02:54.432Z,93.31
2022-11-06T12:05:31.999Z,93.92
2022-11-06T12:07:59.205Z,94.18
2022-11-06T12:10:33.800Z,93.45
2022-11-06T12:13:06.359Z,94.13
2022-11-06T12:15:51.144Z,93.63
2022-11-06T12:18:27.063Z,93.83
2022-11-06T12:21:03.948Z,94.02
2022-11-06T12:23:47.581Z,94.30
2022-11-06T12:26:40.229Z,94.93
2022-11-06T12:29:32.967Z,94.21
2022-11-06T12:32:13.988Z,95.34
2022-11-06T12:34:52.561Z,95.10
2022-11-06T12:37:37.275Z,95.46
2022-11-06T12:40:13.252Z,95.98
2022-11-06T12:42:46.907Z,95.08
2022-11-06T12:45:13.666Z,95.94
2022-11-06T12:47:50.646Z,95.46
2022-11-06T12:50:38.369Z,95.96
2022-11-06T12:53:13.800Z,95.02
2022-11-06T12:55:56.807Z,95.81
2022-11-06T12:58:41.714Z,95.92
2022-11-06T13:01:20.696Z,95.97
2022-11-06T13:04:05.542Z,97.04
2022-11-06T13:07:13.390Z,95.53
2022-11-06T13:10:26.452Z,96.59
2022-11-06T13:13:11.350Z,96.69
2022-11-06T13:16:10.308Z,96.78
2022-11-06T13:18:40.264Z,95.97
2022-11-06T13:21:39.313Z,97.41
2022-11-06T13:24:18.339Z,96.95
2022-11-06T13:26:49.928Z,96.14
2022-11-06T13:29:18.965Z,96.36
2022-11-06T13:32:01.108Z,96.63
2022-11-06T13:34:31.924Z,95.83
2022-11-06T13:36:59.741Z,95.26
2022-11-06T13:39:37.175Z,96.19
2022-11-06T13:42:21.483Z,96.32
2022-11-06T13:44:48.722Z,96.08
2022-11-06T13:47:24.396Z,96.09
2022-11-06T13:50:17.574Z,95.58
2022-11-06T13:52:54.338Z,96.05
2022-11-06T13:55:35.954Z,95.76
2022-11-06T13:58:24.051Z,96.24
2022-11-06T14:01:21.870Z,96.44
2022-11-06T14:04:08.703Z,96.36
2022-11-06T14:06:37.524Z,96.74
2022-11-06T14:09:26.183Z,95.80
2022-11-06T14:11:57.243Z,96.09
2022-11-06T14:14:26.433Z,96.66
2022-11-06T14:17:11.927Z,96.74
2022-11-06T14:19:39.648Z,96.19
2022-11-06T14:22:09.128Z,95.99
2022-11-06T14:24:36.519Z,96.43
2022-11-06T14:27:10.436Z,96.65
2022-11-06T14:29:36.791Z,96.28
2022-11-06T14:32:34.597Z,96.41
2022-11-06T14:35:29.155Z,96.13
2022-11-06T14:38:16.400Z,95.98
2022-11-06T14:40:43.478Z,95.91
2022-11-06T14:43:19.884Z,95.96
2022-11-06T14:45:52.436Z,96.65
2022-11-06T14:48:31.926Z,96.46
2022-11-06T14:51:00.911Z,95.96
2022-11-06T14:53:34.310Z,96.62
2022-11-06T14:56:03.622Z,96.62
2022-11-06T14:58:36.211Z,96.16
2022-11-06T15:01:09.518Z,96.36
2022-11-06T15:03:54.904Z,96.23
2022-11-06T15:06:39.523Z,96.28
2022-11-06T15:09:11.687Z,96.12
2022-11-06T15:11:46.639Z,96.32
2022-11-06T15:14:16.988Z,96.04
2022-11-06T15:17:02.835Z,96.45
2022-11-06T15:19:39.206Z,96.58
2022-11-06T15:22:18.968Z,95.70
2022-11-06T15:24:57.161Z,95.97
2022-11-06T15:27:43.531Z,96.53
2022-11-06T15:30:17.143Z,96.49
2022-11-06T15:32:45.961Z,96.73
2022-11-06T15:35:23.243Z,96.34
2022-11-06T15:37:57.967Z,96.51
2022-11-06T15:40:39.093Z,95.97
2022-11-06T15:43:17.350Z,96.00
2022-11-06T15:45:43.736Z,96.48
2022-11-06T15:48:23.414Z,96.00
2022-11-06T15:50:49.769Z,96.49
2022-11-06T15:53:25.817Z,96.72
2022-11-06T15:56:03.371Z,96.15
2022-11-06T15:58:33.342Z,96.28
2022-11-06T16:01:01.449Z,96.92
2022-11-06T16:03:31.265Z,96.72
2022-11-06T16:06:02.378Z,96.78
2022-11-06T16:08:31.313Z,96.54
2022-11-06T16:10:58.806Z,97.03
2022-11-06T16:13:26.157Z,96.94
2022-11-06T16:15:59.175Z,97.57
2022-11-06T16:18:45.423Z,97.08
2022-11-06T16:21:16.449Z,96.89
2022-11-06T16:23:55.064Z,97.50
2022-11-06T16:26:37.969Z,96.74
2022-11-06T16:29:16.737Z,97.01
2022-11-06T16:31:44.093Z,97.54
2022-11-06T16:34:32.563Z,97.24
2022-11-06T16:37:01.573Z,97.12
2022-11-06T16:39:47.711Z,97.92
2022-11-06T16:42:27.679Z,97.39
2022-11-06T16:45:00.935Z,97.12
2022-11-06T16:47:27.797Z,98.10
2022-11-06T16:49:58.038Z,97.77
2022-11-06T16:52:30.488Z,98.09
2022-11-06T16:55:16.693Z,97.90
2022-11-06T16:58:03.129Z,98.26
2022-11-06T17:00:31.764Z,97.86
2022-11-06T17:03:01.222Z,97.61
2022-11-06T17:05:29.788Z,96.79
2022-11-06T17:08:22.962Z,98.28
2022-11-06T17:10:59.594Z,97.07
2022-11-06T17:13:32.259Z,97.26
2022-11-06T17:16:04.419Z,97.81
2022-11-06T17:18:36.455Z,97.62
2022-11-06T17:21:15.355Z,97.70
2022-11-06T17:23:42.784Z,96.72
2022-11-06T17:26:27.710Z,97.23
2022-11-06T17:28:56.003Z,97.23
2022-11-06T17:31:26.613Z,96.89
2022-11-06T17:33:53.687Z,97.43
2022-11-06T17:36:26.050Z,97.86
2022-11-06T17:38:54.074Z,97.21
2022-11-06T17:41:30.204Z,98.02
2022-11-06T17:44:01.124Z,97.89
2022-11-06T17:46:30.932Z,97.62
2022-11-06T17:48:57.464Z,97.72
2022-11-06T17:51:42.436Z,97.85
2022-11-06T17:54:09.921Z,97.63
2022-11-06T17:56:38.112Z,97.90
2022-11-06T17:59:05.096Z,96.95
2022-11-06T18:01:32.089Z,96.79
2022-11-06T18:03:58.594Z,96.23
2022-11-06T18:06:25.194Z,96.48
2022-11-06T18:08:56.747Z,96.29
2022-11-06T18:11:23.731Z,96.45
2022-11-06T18:13:50.348Z,95.39
2022-11-06T18:16:24.608Z,95.76
2022-11-06T18:18:51.107Z,95.60
2022-11-06T18:21:17.583Z,94.95
2022-11-06T18:23:44.508Z,95.50
2022-11-06T18:26:11.005Z,95.25
2022-11-06T18:28:37.426Z,95.43
2022-11-06T18:31:03.877Z,95.11
2022-11-06T18:33:30.399Z,94.94
2022-11-06T18:36:01.315Z,96.31
2022-11-06T18:38:28.310Z,95.22
2022-11-06T18:40:54.766Z,95.90
2022-11-06T18:43:21.219Z,96.09
2022-11-06T18:45:47.739Z,96.20
2022-11-06T18:48:19.773Z,95.87
2022-11-06T18:50:47.592Z,95.26
2022-11-06T18:53:15.119Z,95.96
2022-11-06T18:55:45.765Z,96.03
2022-11-06T18:58:12.733Z,95.46
2022-11-06T19:00:39.462Z,95.25
2022-11-06T19:03:06.100Z,94.73
2022-11-06T19:05:34.160Z,95.19
2022-11-06T19:08:01.342Z,96.01
2022-11-06T19:10:29.402Z,95.09
2022-11-06T19:12:59.234Z,94.96
2022-11-06T19:15:26.384Z,95.24
2022-11-06T19:17:54.534Z,94.78
2022-11-06T19:20:22.231Z,95.33
2022-11-06T19:22:50.913Z,95.17
2022-11-06T19:25:18.619Z,94.85
2022-11-06T19:27:45.806Z,95.37
2022-11-06T19:30:13.159Z,94.75
2022-11-06T19:32:39.628Z,94.52
2022-11-06T19:35:06.458Z,95.62
2022-11-06T19:37:32.893Z,95.06
2022-11-06T19:40:04.540Z,95.36
2022-11-06T19:42:32.631Z,95.02
2022-11-06T19:44:59.061Z,95.03
2022-11-06T19:47:27.539Z,94.75
2022-11-06T19:49:53.963Z,94.23
2022-11-06T19:52:41.601Z,94.44
2022-11-06T19:55:25.732Z,95.13
2022-11-06T19:57:53.258Z,94.56
2022-11-06T20:00:19.648Z,94.93
2022-11-06T20:02:49.511Z,94.65
2022-11-06T20:05:16.051Z,94.08
2022-11-06T20:07:42.621Z,93.70
2022-11-06T20:10:09.111Z,93.80
2022-11-06T20:12:35.786Z,93.86
2022-11-06T20:15:02.144Z,93.34
2022-11-06T20:17:28.528Z,92.99
2022-11-06T20:19:54.866Z,92.92
2022-11-06T20:22:21.452Z,93.10
2022-11-06T20:24:47.830Z,91.90
2022-11-06T20:27:14.635Z,92.06
2022-11-06T20:29:41.066Z,91.57
2022-11-06T20:32:07.476Z,90.77
2022-11-06T20:34:33.951Z,91.28
2022-11-06T20:37:00.561Z,91.24
2022-11-06T20:39:26.925Z,90.32
2022-11-06T20:41:53.427Z,90.37
2022-11-06T20:44:19.778Z,89.73
2022-11-06T20:46:47.832Z,89.85
2022-11-06T20:49:14.654Z,89.36
2022-11-06T20:52:11.659Z,89.12
2022-11-06T20:54:27.700Z,89.23
2022-11-06T20:56:54.133Z,89.47
2022-11-06T20:59:20.703Z,88.31
2022-11-06T21:01:47.571Z,88.66
2022-11-06T21:04:14.148Z,88.40
2022-11-06T21:06:40.618Z,87.97
2022-11-06T21:09:08.365Z,88.87
2022-11-06T21:11:35.556Z,88.24
2022-11-06T21:14:02.483Z,88.61
2022-11-06T21:16:34.459Z,88.38
2022-11-06T21:19:02.151Z,88.24
2022-11-06T21:21:32.976Z,87.70
2022-11-06T21:24:01.395Z,87.77
2022-11-06T21:26:31.384Z,88.72
2022-11-06T21:28:58.135Z,87.77
2022-11-06T21:31:27.343Z,87.67
2022-11-06T21:33:56.188Z,87.40
2022-11-06T21:36:27.846Z,86.76
2022-11-06T21:38:58.145Z,86.94
2022-11-06T21:41:26.241Z,86.85
2022-11-06T21:43:52.736Z,86.66
2022-11-06T21:46:19.767Z,87.04
2022-11-06T21:48:47.945Z,86.36
2022-11-06T21:51:20.595Z,86.60
2022-11-06T21:54:06.439Z,86.18
2022-11-06T21:56:33.147Z,86.25
2022-11-06T21:59:01.181Z,86.27
2022-11-06T22:01:28.512Z,86.37
2022-11-06T22:03:55.002Z,86.46
2022-11-06T22:06:25.041Z,85.83
2022-11-06T22:08:54.106Z,85.87
2022-11-06T22:11:24.218Z,85.88
2022-11-06T22:13:51.860Z,86.51
2022-11-06T22:16:21.628Z,85.99
2022-11-06T22:18:48.399Z,86.21
2022-11-06T22:21:18.058Z,86.28
2022-11-06T22:23:45.222Z,85.83
2022-11-06T22:26:15.560Z,86.14
2022-11-06T22:28:42.709Z,85.81
2022-11-06T22:31:09.671Z,85.55
2022-11-06T22:33:36.627Z,85.78
2022-11-06T22:36:07.712Z,86.13
2022-11-06T22:38:35.007Z,85.64
2022-11-06T22:41:02.504Z,85.30
2022-11-06T22:43:30.392Z,85.63
2022-11-06T22:46:02.332Z,86.22
2022-11-06T22:48:30.330Z,86.29
2022-11-06T22:50:56.877Z,86.34
2022-11-06T22:53:23.290Z,85.71
2022-11-06T22:55:55.251Z,85.74
2022-11-06T22:58:21.859Z,86.07
2022-11-06T23:00:52.676Z,86.66
2022-11-06T23:03:20.170Z,86.19
2022-11-06T23:05:46.985Z,86.60
2022-11-06T23:08:14.021Z,86.79
2022-11-06T23:10:42.251Z,86.86
2022-11-06T23:13:09.124Z,86.34
2022-11-06T23:15:36.388Z,86.14
2022-11-06T23:18:03.826Z,86.33
2022-11-06T23:20:34.885Z,87.00
2022-11-06T23:23:02.518Z,87.11
2022-11-06T23:25:29.877Z,86.90
2022-11-06T23:27:58.765Z,87.68
2022-11-06T23:30:25.399Z,87.03
2022-11-06T23:32:51.783Z,87.09
2022-11-06T23:35:21.193Z,87.48
2022-11-06T23:37:49.316Z,87.81
2022-11-06T23:40:15.742Z,88.44
2022-11-06T23:42:43.266Z,87.82
2022-11-06T23:45:31.158Z,88.32
2022-11-06T23:47:57.511Z,88.30
2022-11-06T23:50:23.885Z,88.04
2022-11-06T23:52:50.309Z,89.19
2022-11-06T23:55:16.840Z,88.52
2022-11-06T23:57:43.360Z,88.76
